createdAt,value
2017-05-10T00:00:48.106Z,5.19
2017-05-10T00:01:49.532Z,5.17
2017-05-10T00:02:50.945Z,5.13
2017-05-10T00:03:52.366Z,5.02
2017-05-10T00:04:53.790Z,5.09
2017-05-10T00:05:55.206Z,5.38
2017-05-10T00:06:56.639Z,5.41
2017-05-10T00:07:58.058Z,5.57
2017-05-10T00:08:59.476Z,5.81
2017-05-10T00:10:00.890Z,5.68
2017-05-10T00:11:02.311Z,5.64
2017-05-10T00:12:04.585Z,5.66
2017-05-10T00:13:06.006Z,5.55
2017-05-10T00:14:07.426Z,5.57
2017-05-10T00:15:08.860Z,5.81
2017-05-10T00:16:10.289Z,5.96
2017-05-10T00:17:11.709Z,5.98
2017-05-10T00:18:13.128Z,5.85
2017-05-10T00:19:14.546Z,5.48
2017-05-10T00:20:15.965Z,5.45
2017-05-10T00:21:17.386Z,5.45
2017-05-10T00:22:18.809Z,5.64
2017-05-10T00:23:20.230Z,5.48
2017-05-10T00:24:21.647Z,5.56
2017-05-10T00:25:23.070Z,5.88
2017-05-10T00:26:24.487Z,5.92
2017-05-10T00:27:26.562Z,5.49
2017-05-10T00:28:27.978Z,5.34
2017-05-10T00:29:29.400Z,5.34
2017-05-10T00:30:30.815Z,5.14
2017-05-10T00:31:32.240Z,5.19
2017-05-10T00:32:33.660Z,5.28
2017-05-10T00:33:35.080Z,5.27
2017-05-10T00:34:36.500Z,5.22
2017-05-10T00:35:37.920Z,5.43
2017-05-10T00:36:40.163Z,5.53
2017-05-10T00:37:41.581Z,5.38
2017-05-10T00:38:42.996Z,5.59
2017-05-10T00:39:44.435Z,5.67
2017-05-10T00:40:45.850Z,5.83
2017-05-10T00:41:47.277Z,5.83
2017-05-10T00:42:48.697Z,5.55
2017-05-10T00:43:50.118Z,5.35
2017-05-10T00:44:51.539Z,5.30
2017-05-10T00:45:52.960Z,5.04
2017-05-10T00:46:54.377Z,5.07
2017-05-10T00:47:55.819Z,4.96
2017-05-10T00:48:57.238Z,4.62
2017-05-10T00:49:58.658Z,4.76
2017-05-10T00:51:00.078Z,4.79
2017-05-10T00:52:01.506Z,4.76
2017-05-10T00:53:02.928Z,4.69
2017-05-10T00:54:04.352Z,4.75
2017-05-10T00:55:05.774Z,4.72
2017-05-10T00:56:07.194Z,4.72
2017-05-10T00:57:08.621Z,4.83
2017-05-10T00:58:10.038Z,4.77
2017-05-10T00:59:11.466Z,4.95
2017-05-10T01:00:12.879Z,4.89
2017-05-10T01:01:14.297Z,5.09
2017-05-10T01:02:15.722Z,5.19
2017-05-10T01:03:17.137Z,5.04
2017-05-10T01:04:18.560Z,4.99
2017-05-10T01:05:19.983Z,4.95
2017-05-10T01:06:21.406Z,5.02
2017-05-10T01:07:22.834Z,5.16
2017-05-10T01:08:24.252Z,5.23
2017-05-10T01:09:25.669Z,5.38
2017-05-10T01:10:27.093Z,5.32
2017-05-10T01:11:28.511Z,5.38
2017-05-10T01:12:29.929Z,5.41
2017-05-10T01:13:31.364Z,5.52
2017-05-10T01:14:32.780Z,5.55
2017-05-10T01:15:34.215Z,5.45
2017-05-10T01:16:35.649Z,5.49
2017-05-10T01:17:37.071Z,5.41
2017-05-10T01:18:38.486Z,5.46
2017-05-10T01:19:39.911Z,5.22
2017-05-10T01:20:41.338Z,5.07
2017-05-10T01:21:42.749Z,5.16
2017-05-10T01:22:44.180Z,5.05
2017-05-10T01:23:45.590Z,5.20
2017-05-10T01:24:47.007Z,5.41
2017-05-10T01:25:48.425Z,5.52
2017-05-10T01:26:49.843Z,5.31
2017-05-10T01:27:51.263Z,5.35
2017-05-10T01:28:52.683Z,5.41
2017-05-10T01:29:54.112Z,5.46
2017-05-10T01:30:55.527Z,5.60
2017-05-10T01:31:56.949Z,5.68
2017-05-10T01:32:58.367Z,5.64
2017-05-10T01:33:59.789Z,5.59
2017-05-10T01:35:01.206Z,5.55
2017-05-10T01:36:02.633Z,5.27
2017-05-10T01:37:04.059Z,5.05
2017-05-10T01:38:05.483Z,5.27
2017-05-10T01:39:06.899Z,5.23
2017-05-10T01:40:08.317Z,5.32
2017-05-10T01:41:09.740Z,5.17
2017-05-10T01:42:11.164Z,5.17
2017-05-10T01:43:12.581Z,5.09
2017-05-10T01:44:14.000Z,5.09
2017-05-10T01:45:15.422Z,4.99
2017-05-10T01:46:16.848Z,5.01
2017-05-10T01:47:18.267Z,4.98
2017-05-10T01:48:19.683Z,4.84
2017-05-10T01:49:21.103Z,4.83
2017-05-10T01:50:22.523Z,4.62
2017-05-10T01:51:23.944Z,4.88
2017-05-10T01:52:25.369Z,5.02
2017-05-10T01:53:26.787Z,5.04
2017-05-10T01:54:28.208Z,5.09
2017-05-10T01:55:29.625Z,5.16
2017-05-10T01:56:31.047Z,5.14
2017-05-10T01:57:32.470Z,5.07
2017-05-10T01:58:33.890Z,5.19
2017-05-10T01:59:35.311Z,5.22
2017-05-10T02:00:36.730Z,5.28
2017-05-10T02:01:38.153Z,5.25
2017-05-10T02:02:39.593Z,5.34
2017-05-10T02:03:41.008Z,5.17
2017-05-10T02:04:42.440Z,5.12
2017-05-10T02:05:43.858Z,4.91
2017-05-10T02:06:45.281Z,4.91
2017-05-10T02:07:46.741Z,4.99
2017-05-10T02:08:48.151Z,5.07
2017-05-10T02:09:49.573Z,5.13
2017-05-10T02:10:50.992Z,5.20
2017-05-10T02:11:52.424Z,5.25
2017-05-10T02:12:53.852Z,5.22
2017-05-10T02:13:55.938Z,5.25
2017-05-10T02:14:56.655Z,5.19
2017-05-10T02:15:58.043Z,5.09
2017-05-10T02:16:59.464Z,5.05
2017-05-10T02:18:00.885Z,5.04
2017-05-10T02:19:02.308Z,5.09
2017-05-10T02:20:03.721Z,5.17
2017-05-10T02:21:05.149Z,5.02
2017-05-10T02:22:06.568Z,4.57
2017-05-10T02:23:07.989Z,4.59
2017-05-10T02:24:09.408Z,4.28
2017-05-10T02:25:10.824Z,4.18
2017-05-10T02:26:12.250Z,4.32
2017-05-10T02:27:13.666Z,4.62
2017-05-10T02:28:15.088Z,4.51
2017-05-10T02:29:16.513Z,4.26
2017-05-10T02:30:17.934Z,4.55
2017-05-10T02:31:19.349Z,4.39
2017-05-10T02:32:20.769Z,4.43
2017-05-10T02:33:22.184Z,4.46
2017-05-10T02:34:23.602Z,4.51
2017-05-10T02:35:25.024Z,4.73
2017-05-10T02:36:26.437Z,4.79
2017-05-10T02:37:27.861Z,4.64
2017-05-10T02:38:29.278Z,4.73
2017-05-10T02:39:30.701Z,4.79
2017-05-10T02:40:32.115Z,4.79
2017-05-10T02:41:33.539Z,4.80
2017-05-10T02:42:34.959Z,4.76
2017-05-10T02:43:36.383Z,4.89
2017-05-10T02:44:37.795Z,4.77
2017-05-10T02:45:39.220Z,4.59
2017-05-10T02:46:40.641Z,4.36
2017-05-10T02:47:42.067Z,4.14
2017-05-10T02:48:43.488Z,4.04
2017-05-10T02:49:44.914Z,4.06
2017-05-10T02:50:46.336Z,3.96
2017-05-10T02:51:47.762Z,4.15
2017-05-10T02:52:49.175Z,4.15
2017-05-10T02:53:50.594Z,4.03
2017-05-10T02:54:52.011Z,4.04
2017-05-10T02:55:53.423Z,4.06
2017-05-10T02:56:55.764Z,4.08
2017-05-10T02:57:57.191Z,4.10
2017-05-10T02:58:58.612Z,4.08
2017-05-10T03:00:00.028Z,3.94
2017-05-10T03:01:01.447Z,4.10
2017-05-10T03:02:02.866Z,4.15
2017-05-10T03:03:04.286Z,4.24
2017-05-10T03:04:05.710Z,4.36
2017-05-10T03:05:07.128Z,4.62
2017-05-10T03:06:08.551Z,4.42
2017-05-10T03:07:09.969Z,4.55
2017-05-10T03:08:11.384Z,4.69
2017-05-10T03:09:12.804Z,4.67
2017-05-10T03:10:14.220Z,4.72
2017-05-10T03:11:15.634Z,4.70
2017-05-10T03:12:17.050Z,4.76
2017-05-10T03:13:18.477Z,4.59
2017-05-10T03:14:19.887Z,4.43
2017-05-10T03:15:21.305Z,4.50
2017-05-10T03:16:22.735Z,4.40
2017-05-10T03:17:24.151Z,4.44
2017-05-10T03:18:25.573Z,4.21
2017-05-10T03:19:26.992Z,4.32
2017-05-10T03:20:28.414Z,4.28
2017-05-10T03:21:29.830Z,4.29
2017-05-10T03:22:31.245Z,4.40
2017-05-10T03:23:32.693Z,4.34
2017-05-10T03:24:34.108Z,4.28
2017-05-10T03:25:35.538Z,4.24
2017-05-10T03:26:36.994Z,4.40
2017-05-10T03:27:38.386Z,4.51
2017-05-10T03:28:39.805Z,4.54
2017-05-10T03:29:41.254Z,4.70
2017-05-10T03:30:42.707Z,4.62
2017-05-10T03:31:44.146Z,4.65
2017-05-10T03:32:45.558Z,4.29
2017-05-10T03:33:46.978Z,4.04
2017-05-10T03:34:48.393Z,4.04
2017-05-10T03:35:49.817Z,3.83
2017-05-10T03:36:51.235Z,3.86
2017-05-10T03:37:52.648Z,4.08
2017-05-10T03:38:54.066Z,4.26
2017-05-10T03:39:55.480Z,4.28
2017-05-10T03:40:56.902Z,4.33
2017-05-10T03:41:58.320Z,4.42
2017-05-10T03:42:59.745Z,4.46
2017-05-10T03:44:01.164Z,4.39
2017-05-10T03:45:02.586Z,4.40
2017-05-10T03:46:04.009Z,4.28
2017-05-10T03:47:05.431Z,3.86
2017-05-10T03:48:07.830Z,3.92
2017-05-10T03:49:09.249Z,3.75
2017-05-10T03:50:10.668Z,3.71
2017-05-10T03:51:12.082Z,3.82
2017-05-10T03:52:13.501Z,3.70
2017-05-10T03:53:14.922Z,3.62
2017-05-10T03:54:16.346Z,3.53
2017-05-10T03:55:17.769Z,3.72
2017-05-10T03:56:19.187Z,3.72
2017-05-10T03:57:20.608Z,3.72
2017-05-10T03:58:22.033Z,3.65
2017-05-10T03:59:23.450Z,3.75
2017-05-10T04:00:24.878Z,3.78
2017-05-10T04:01:26.293Z,3.57
2017-05-10T04:02:27.710Z,3.65
2017-05-10T04:03:29.130Z,3.64
2017-05-10T04:04:30.553Z,3.76
2017-05-10T04:05:31.970Z,3.60
2017-05-10T04:06:34.073Z,3.62
2017-05-10T04:07:35.497Z,3.60
2017-05-10T04:08:37.409Z,3.57
2017-05-10T04:09:38.833Z,3.52
2017-05-10T04:10:40.252Z,3.54
2017-05-10T04:11:41.670Z,3.58
2017-05-10T04:12:43.093Z,3.70
2017-05-10T04:13:44.508Z,3.88
2017-05-10T04:14:45.930Z,3.83
2017-05-10T04:15:47.351Z,4.08
2017-05-10T04:16:48.780Z,4.16
2017-05-10T04:17:50.204Z,3.94
2017-05-10T04:18:52.351Z,4.21
2017-05-10T04:19:53.775Z,4.25
2017-05-10T04:20:55.193Z,4.24
2017-05-10T04:21:56.609Z,4.19
2017-05-10T04:22:58.035Z,3.94
2017-05-10T04:23:59.460Z,3.90
2017-05-10T04:25:00.880Z,4.19
2017-05-10T04:26:02.308Z,4.19
2017-05-10T04:27:03.729Z,4.15
2017-05-10T04:28:05.160Z,4.34
2017-05-10T04:29:06.583Z,3.82
2017-05-10T04:30:08.001Z,3.68
2017-05-10T04:31:09.426Z,3.70
2017-05-10T04:32:10.846Z,3.80
2017-05-10T04:33:12.263Z,3.78
2017-05-10T04:34:13.687Z,3.92
2017-05-10T04:35:15.118Z,3.72
2017-05-10T04:36:16.543Z,3.75
2017-05-10T04:37:17.966Z,3.82
2017-05-10T04:38:19.381Z,3.86
2017-05-10T04:39:20.809Z,3.79
2017-05-10T04:40:22.232Z,3.79
2017-05-10T04:41:23.648Z,3.68
2017-05-10T04:42:25.074Z,3.53
2017-05-10T04:43:26.498Z,3.46
2017-05-10T04:44:27.921Z,3.39
2017-05-10T04:45:29.346Z,3.58
2017-05-10T04:46:30.768Z,3.60
2017-05-10T04:47:32.195Z,3.68
2017-05-10T04:48:33.619Z,3.72
2017-05-10T04:49:35.041Z,3.80
2017-05-10T04:50:36.459Z,4.07
2017-05-10T04:51:37.884Z,3.97
2017-05-10T04:52:39.311Z,4.04
2017-05-10T04:53:40.730Z,4.01
2017-05-10T04:54:42.151Z,3.83
2017-05-10T04:55:43.581Z,3.88
2017-05-10T04:56:45.002Z,4.07
2017-05-10T04:57:46.429Z,4.07
2017-05-10T04:58:47.852Z,4.07
2017-05-10T04:59:49.277Z,4.06
2017-05-10T05:00:50.698Z,4.15
2017-05-10T05:01:52.121Z,4.18
2017-05-10T05:02:53.538Z,4.18
2017-05-10T05:03:54.962Z,4.34
2017-05-10T05:04:56.381Z,4.29
2017-05-10T05:05:57.807Z,4.28
2017-05-10T05:06:59.233Z,4.22
2017-05-10T05:08:01.410Z,4.12
2017-05-10T05:09:02.826Z,4.19
2017-05-10T05:10:04.256Z,4.24
2017-05-10T05:11:05.676Z,4.34
2017-05-10T05:12:07.104Z,4.40
2017-05-10T05:13:08.536Z,4.36
2017-05-10T05:14:09.955Z,4.72
2017-05-10T05:15:11.377Z,4.79
2017-05-10T05:16:12.799Z,4.80
2017-05-10T05:17:14.222Z,4.75
2017-05-10T05:18:15.651Z,4.83
2017-05-10T05:19:17.070Z,4.99
2017-05-10T05:20:18.499Z,4.86
2017-05-10T05:21:19.921Z,4.89
2017-05-10T05:22:21.335Z,4.73
2017-05-10T05:23:22.756Z,4.79
2017-05-10T05:24:24.182Z,4.89
2017-05-10T05:25:25.607Z,4.96
2017-05-10T05:26:27.028Z,5.09
2017-05-10T05:27:28.453Z,5.12
2017-05-10T05:28:29.871Z,5.43
2017-05-10T05:29:31.291Z,5.38
2017-05-10T05:30:32.715Z,5.35
2017-05-10T05:31:34.144Z,5.48
2017-05-10T05:32:35.579Z,5.53
2017-05-10T05:33:37.008Z,5.48
2017-05-10T05:34:38.434Z,5.35
2017-05-10T05:35:39.866Z,5.41
2017-05-10T05:36:41.290Z,5.43
2017-05-10T05:37:42.712Z,5.45
2017-05-10T05:38:44.148Z,5.45
2017-05-10T05:39:45.565Z,5.52
2017-05-10T05:40:46.992Z,5.57
2017-05-10T05:41:48.416Z,5.74
2017-05-10T05:42:49.837Z,5.96
2017-05-10T05:43:51.255Z,6.03
2017-05-10T05:44:52.680Z,6.13
2017-05-10T05:45:54.136Z,6.10
2017-05-10T05:46:55.535Z,6.14
2017-05-10T05:47:56.956Z,6.35
2017-05-10T05:48:58.377Z,6.36
2017-05-10T05:49:59.803Z,6.33
2017-05-10T05:51:01.226Z,6.30
2017-05-10T05:52:02.642Z,6.61
2017-05-10T05:53:04.062Z,6.56
2017-05-10T05:54:05.483Z,6.33
2017-05-10T05:55:06.908Z,6.43
2017-05-10T05:56:08.331Z,6.26
2017-05-10T05:57:09.756Z,6.29
2017-05-10T05:58:11.182Z,6.43
2017-05-10T05:59:12.604Z,6.46
2017-05-10T06:00:14.040Z,6.48
2017-05-10T06:01:15.460Z,6.62
2017-05-10T06:02:16.885Z,6.73
2017-05-10T06:03:18.306Z,7.07
2017-05-10T06:04:19.735Z,7.27
2017-05-10T06:05:21.157Z,7.05
2017-05-10T06:06:22.584Z,7.01
2017-05-10T06:07:24.018Z,7.04
2017-05-10T06:08:25.444Z,6.98
2017-05-10T06:09:26.858Z,7.07
2017-05-10T06:10:28.280Z,7.12
2017-05-10T06:11:29.700Z,7.16
2017-05-10T06:12:31.129Z,7.23
2017-05-10T06:13:32.551Z,7.05
2017-05-10T06:14:33.976Z,7.16
2017-05-10T06:15:35.403Z,7.07
2017-05-10T06:16:36.826Z,7.31
2017-05-10T06:17:38.256Z,7.44
2017-05-10T06:18:39.687Z,7.32
2017-05-10T06:19:41.113Z,7.42
2017-05-10T06:20:43.474Z,7.22
2017-05-10T06:21:43.903Z,7.32
2017-05-10T06:22:45.333Z,7.67
2017-05-10T06:23:46.806Z,7.94
2017-05-10T06:24:48.278Z,8.32
2017-05-10T06:25:49.701Z,8.48
2017-05-10T06:26:51.124Z,8.50
2017-05-10T06:27:52.592Z,8.32
2017-05-10T06:28:54.016Z,8.25
2017-05-10T06:29:55.446Z,8.21
2017-05-10T06:30:57.428Z,8.32
2017-05-10T06:31:59.511Z,8.12
2017-05-10T06:33:00.932Z,8.04
2017-05-10T06:34:02.358Z,8.39
2017-05-10T06:35:03.782Z,8.36
2017-05-10T06:36:05.214Z,8.25
2017-05-10T06:37:06.635Z,8.42
2017-05-10T06:38:08.061Z,8.40
2017-05-10T06:39:09.490Z,8.40
2017-05-10T06:40:10.945Z,8.48
2017-05-10T06:41:12.397Z,8.58
2017-05-10T06:42:13.798Z,8.53
2017-05-10T06:43:15.223Z,8.39
2017-05-10T06:44:16.649Z,8.39
2017-05-10T06:45:18.869Z,8.57
2017-05-10T06:46:20.304Z,8.71
2017-05-10T06:47:21.726Z,8.72
2017-05-10T06:48:23.153Z,8.94
2017-05-10T06:49:24.586Z,9.01
2017-05-10T06:50:26.009Z,8.97
2017-05-10T06:51:27.427Z,8.93
2017-05-10T06:52:28.853Z,9.06
2017-05-10T06:53:30.272Z,9.12
2017-05-10T06:54:31.699Z,9.06
2017-05-10T06:55:33.118Z,9.09
2017-05-10T06:56:34.577Z,9.10
2017-05-10T06:57:35.959Z,9.24
2017-05-10T06:58:37.389Z,9.31
2017-05-10T06:59:38.811Z,9.31
2017-05-10T07:00:40.241Z,9.38
2017-05-10T07:01:41.668Z,9.43
2017-05-10T07:02:43.101Z,9.50
2017-05-10T07:03:44.534Z,9.53
2017-05-10T07:04:45.970Z,9.46
2017-05-10T07:05:47.398Z,9.31
2017-05-10T07:06:48.832Z,9.40
2017-05-10T07:07:50.821Z,9.34
2017-05-10T07:08:52.334Z,9.31
2017-05-10T07:09:53.763Z,9.53
2017-05-10T07:10:55.181Z,9.70
2017-05-10T07:11:56.609Z,9.79
2017-05-10T07:12:58.043Z,9.85
2017-05-10T07:13:59.472Z,9.99
2017-05-10T07:15:00.902Z,10.06
2017-05-10T07:16:02.338Z,10.03
2017-05-10T07:17:03.957Z,10.09
2017-05-10T07:18:05.396Z,10.14
2017-05-10T07:19:06.834Z,10.19
2017-05-10T07:20:08.264Z,10.21
2017-05-10T07:21:09.694Z,9.99
2017-05-10T07:22:11.126Z,10.06
2017-05-10T07:23:12.552Z,10.14
2017-05-10T07:24:13.990Z,10.32
2017-05-10T07:25:15.423Z,10.32
2017-05-10T07:26:16.850Z,10.18
2017-05-10T07:27:18.280Z,10.21
2017-05-10T07:28:19.704Z,10.44
2017-05-10T07:29:21.150Z,10.47
2017-05-10T07:30:22.591Z,10.42
2017-05-10T07:31:24.100Z,10.40
2017-05-10T07:32:25.520Z,10.56
2017-05-10T07:33:26.953Z,10.43
2017-05-10T07:34:28.395Z,10.65
2017-05-10T07:35:29.822Z,10.39
2017-05-10T07:36:31.255Z,10.47
2017-05-10T07:37:32.715Z,10.59
2017-05-10T07:38:34.141Z,10.71
2017-05-10T07:39:35.580Z,10.55
2017-05-10T07:40:37.004Z,10.52
2017-05-10T07:41:38.539Z,10.60
2017-05-10T07:42:39.974Z,10.65
2017-05-10T07:43:41.399Z,10.63
2017-05-10T07:44:42.835Z,10.73
2017-05-10T07:45:44.273Z,10.80
2017-05-10T07:46:45.707Z,10.92
2017-05-10T07:47:47.149Z,10.77
2017-05-10T07:48:48.584Z,10.95
2017-05-10T07:49:50.071Z,10.81
2017-05-10T07:50:51.510Z,10.91
2017-05-10T07:51:52.942Z,10.99
2017-05-10T07:52:54.374Z,11.09
2017-05-10T07:53:55.800Z,11.06
2017-05-10T07:54:57.239Z,10.92
2017-05-10T07:55:58.674Z,11.03
2017-05-10T07:57:00.105Z,11.06
2017-05-10T07:58:01.535Z,10.99
2017-05-10T07:59:02.963Z,10.98
2017-05-10T08:00:04.486Z,10.91
2017-05-10T08:01:05.917Z,11.02
2017-05-10T08:02:07.350Z,11.20
2017-05-10T08:03:08.805Z,11.38
2017-05-10T08:04:10.301Z,11.38
2017-05-10T08:05:11.728Z,11.39
2017-05-10T08:06:13.169Z,11.27
2017-05-10T08:07:14.598Z,11.38
2017-05-10T08:08:16.024Z,11.47
2017-05-10T08:09:17.454Z,11.43
2017-05-10T08:10:18.878Z,11.41
2017-05-10T08:11:20.314Z,11.52
2017-05-10T08:12:23.200Z,11.49
2017-05-10T08:13:24.634Z,11.53
2017-05-10T08:14:26.065Z,11.74
2017-05-10T08:15:27.501Z,11.72
2017-05-10T08:16:28.929Z,11.78
2017-05-10T08:17:30.371Z,11.78
2017-05-10T08:18:31.803Z,11.75
2017-05-10T08:19:33.230Z,11.86
2017-05-10T08:20:34.656Z,12.04
2017-05-10T08:21:36.096Z,12.02
2017-05-10T08:22:37.531Z,12.05
2017-05-10T08:23:38.977Z,12.11
2017-05-10T08:24:40.407Z,12.04
2017-05-10T08:25:41.840Z,12.12
2017-05-10T08:26:43.270Z,12.34
2017-05-10T08:27:44.702Z,12.30
2017-05-10T08:28:46.137Z,12.05
2017-05-10T08:29:47.562Z,12.20
2017-05-10T08:30:48.993Z,12.02
2017-05-10T08:31:50.419Z,11.93
2017-05-10T08:32:51.846Z,12.02
2017-05-10T08:33:53.278Z,12.08
2017-05-10T08:34:54.719Z,11.94
2017-05-10T08:35:56.154Z,12.19
2017-05-10T08:36:57.584Z,12.42
2017-05-10T08:37:59.011Z,12.31
2017-05-10T08:39:00.441Z,12.44
2017-05-10T08:40:01.876Z,12.44
2017-05-10T08:41:03.302Z,12.48
2017-05-10T08:42:04.762Z,12.52
2017-05-10T08:43:06.189Z,12.69
2017-05-10T08:44:07.619Z,12.64
2017-05-10T08:45:09.047Z,12.78
2017-05-10T08:46:10.487Z,12.77
2017-05-10T08:47:11.931Z,12.75
2017-05-10T08:48:13.357Z,12.89
2017-05-10T08:49:14.783Z,12.75
2017-05-10T08:50:16.225Z,12.89
2017-05-10T08:51:17.649Z,12.87
2017-05-10T08:52:19.089Z,12.71
2017-05-10T08:53:20.535Z,12.74
2017-05-10T08:54:21.964Z,12.77
2017-05-10T08:55:23.402Z,12.71
2017-05-10T08:56:24.841Z,12.66
2017-05-10T08:57:26.286Z,12.82
2017-05-10T08:58:27.725Z,12.84
2017-05-10T08:59:29.166Z,12.87
2017-05-10T09:00:30.599Z,12.95
2017-05-10T09:01:32.125Z,12.89
2017-05-10T09:02:33.554Z,13.00
2017-05-10T09:03:34.998Z,13.11
2017-05-10T09:04:36.466Z,13.32
2017-05-10T09:05:37.902Z,13.30
2017-05-10T09:06:39.329Z,13.40
2017-05-10T09:07:40.756Z,13.36
2017-05-10T09:08:42.278Z,12.95
2017-05-10T09:09:43.714Z,12.99
2017-05-10T09:10:45.140Z,12.89
2017-05-10T09:11:46.582Z,13.21
2017-05-10T09:12:48.011Z,13.17
2017-05-10T09:13:49.442Z,13.22
2017-05-10T09:14:50.878Z,13.12
2017-05-10T09:15:52.368Z,13.41
2017-05-10T09:16:53.809Z,13.65
2017-05-10T09:17:55.246Z,13.59
2017-05-10T09:18:56.681Z,13.52
2017-05-10T09:19:58.112Z,13.69
2017-05-10T09:20:59.543Z,13.74
2017-05-10T09:22:00.975Z,13.51
2017-05-10T09:23:02.407Z,13.47
2017-05-10T09:24:03.840Z,13.51
2017-05-10T09:25:05.268Z,13.20
2017-05-10T09:26:06.717Z,13.41
2017-05-10T09:27:08.262Z,13.30
2017-05-10T09:28:09.688Z,13.38
2017-05-10T09:29:11.120Z,13.67
2017-05-10T09:30:12.553Z,13.87
2017-05-10T09:31:13.990Z,13.99
2017-05-10T09:32:15.423Z,14.32
2017-05-10T09:33:17.531Z,14.46
2017-05-10T09:34:18.230Z,14.69
2017-05-10T09:35:19.663Z,14.04
2017-05-10T09:36:21.105Z,13.84
2017-05-10T09:37:22.533Z,14.17
2017-05-10T09:38:23.964Z,14.29
2017-05-10T09:39:25.393Z,14.39
2017-05-10T09:40:26.834Z,14.34
2017-05-10T09:41:28.279Z,14.19
2017-05-10T09:42:29.716Z,14.01
2017-05-10T09:43:31.144Z,14.10
2017-05-10T09:44:32.579Z,14.13
2017-05-10T09:45:34.017Z,14.28
2017-05-10T09:46:35.448Z,14.31
2017-05-10T09:47:36.874Z,14.42
2017-05-10T09:48:38.309Z,14.34
2017-05-10T09:49:39.739Z,14.57
2017-05-10T09:50:41.184Z,14.42
2017-05-10T09:51:42.613Z,14.57
2017-05-10T09:52:44.043Z,14.65
2017-05-10T09:53:45.474Z,14.64
2017-05-10T09:54:46.911Z,14.60
2017-05-10T09:55:48.344Z,14.83
2017-05-10T09:56:49.777Z,14.93
2017-05-10T09:57:51.210Z,14.54
2017-05-10T09:58:52.639Z,14.71
2017-05-10T09:59:54.071Z,14.57
2017-05-10T10:00:55.502Z,14.61
2017-05-10T10:01:56.937Z,14.84
2017-05-10T10:02:58.374Z,14.50
2017-05-10T10:03:59.807Z,14.71
2017-05-10T10:05:01.248Z,14.34
2017-05-10T10:06:02.683Z,14.61
2017-05-10T10:07:04.123Z,14.91
2017-05-10T10:08:05.554Z,15.27
2017-05-10T10:09:06.987Z,15.54
2017-05-10T10:10:08.423Z,15.33
2017-05-10T10:11:09.860Z,15.60
2017-05-10T10:12:11.289Z,15.23
2017-05-10T10:13:12.719Z,15.20
2017-05-10T10:14:14.155Z,15.23
2017-05-10T10:15:15.582Z,15.02
2017-05-10T10:16:17.027Z,15.01
2017-05-10T10:17:18.471Z,15.51
2017-05-10T10:18:19.912Z,15.67
2017-05-10T10:19:21.353Z,15.82
2017-05-10T10:20:22.783Z,16.14
2017-05-10T10:21:25.108Z,16.25
2017-05-10T10:22:26.544Z,16.48
2017-05-10T10:23:27.971Z,16.55
2017-05-10T10:24:29.414Z,16.65
2017-05-10T10:25:30.848Z,16.88
2017-05-10T10:26:32.286Z,16.81
2017-05-10T10:27:33.717Z,16.70
2017-05-10T10:28:35.150Z,16.74
2017-05-10T10:29:36.591Z,16.25
2017-05-10T10:30:38.034Z,16.03
2017-05-10T10:31:39.483Z,16.35
2017-05-10T10:32:40.932Z,16.83
2017-05-10T10:33:42.365Z,17.03
2017-05-10T10:34:43.798Z,16.90
2017-05-10T10:35:45.233Z,17.10
2017-05-10T10:36:46.679Z,16.81
2017-05-10T10:37:48.107Z,17.11
2017-05-10T10:38:49.545Z,16.96
2017-05-10T10:39:50.992Z,17.22
2017-05-10T10:40:52.443Z,16.96
2017-05-10T10:41:53.889Z,16.90
2017-05-10T10:42:55.316Z,17.04
2017-05-10T10:43:56.760Z,17.10
2017-05-10T10:44:58.199Z,17.23
2017-05-10T10:45:59.637Z,17.23
2017-05-10T10:47:01.904Z,17.11
2017-05-10T10:48:03.339Z,17.25
2017-05-10T10:49:04.776Z,17.13
2017-05-10T10:50:06.209Z,17.32
2017-05-10T10:51:08.244Z,16.88
2017-05-10T10:52:10.271Z,16.89
2017-05-10T10:53:11.710Z,16.90
2017-05-10T10:54:13.145Z,17.55
2017-05-10T10:55:14.585Z,17.64
2017-05-10T10:56:16.997Z,17.55
2017-05-10T10:57:18.429Z,17.85
2017-05-10T10:58:19.877Z,17.33
2017-05-10T10:59:23.011Z,17.00
2017-05-10T11:00:24.449Z,17.06
2017-05-10T11:01:25.896Z,17.66
2017-05-10T11:02:27.327Z,17.59
2017-05-10T11:03:28.860Z,17.73
2017-05-10T11:04:30.333Z,17.62
2017-05-10T11:05:31.763Z,17.22
2017-05-10T11:06:33.203Z,17.38
2017-05-10T11:07:34.664Z,17.67
2017-05-10T11:08:36.095Z,17.66
2017-05-10T11:09:37.539Z,17.66
2017-05-10T11:10:38.977Z,17.53
2017-05-10T11:11:40.410Z,17.51
2017-05-10T11:12:41.845Z,17.13
2017-05-10T11:13:43.276Z,17.07
2017-05-10T11:14:44.712Z,17.35
2017-05-10T11:15:46.207Z,17.06
2017-05-10T11:16:47.643Z,17.15
2017-05-10T11:17:49.105Z,17.30
2017-05-10T11:18:50.536Z,17.41
2017-05-10T11:19:51.976Z,17.69
2017-05-10T11:20:53.401Z,17.69
2017-05-10T11:21:54.836Z,17.59
2017-05-10T11:22:56.274Z,17.07
2017-05-10T11:23:58.437Z,17.46
2017-05-10T11:24:59.873Z,17.40
2017-05-10T11:26:01.313Z,17.48
2017-05-10T11:27:02.753Z,17.53
2017-05-10T11:28:04.185Z,17.44
2017-05-10T11:29:05.627Z,17.32
2017-05-10T11:30:07.061Z,17.70
2017-05-10T11:31:08.490Z,17.81
2017-05-10T11:32:09.923Z,17.64
2017-05-10T11:33:11.363Z,17.87
2017-05-10T11:34:12.794Z,17.99
2017-05-10T11:35:14.232Z,18.17
2017-05-10T11:36:15.684Z,18.21
2017-05-10T11:37:17.112Z,18.04
2017-05-10T11:38:18.553Z,18.00
2017-05-10T11:39:19.997Z,18.18
2017-05-10T11:40:21.436Z,18.06
2017-05-10T11:41:22.876Z,17.76
2017-05-10T11:42:24.307Z,17.69
2017-05-10T11:43:25.741Z,17.87
2017-05-10T11:44:27.180Z,17.88
2017-05-10T11:45:28.614Z,17.87
2017-05-10T11:46:30.051Z,18.31
2017-05-10T11:47:31.496Z,18.39
2017-05-10T11:48:32.923Z,18.58
2017-05-10T11:49:34.355Z,18.87
2017-05-10T11:50:35.795Z,18.95
2017-05-10T11:51:37.235Z,18.95
2017-05-10T11:52:38.665Z,18.98
2017-05-10T11:53:40.100Z,19.13
2017-05-10T11:54:41.534Z,18.65
2017-05-10T11:55:42.964Z,18.68
2017-05-10T11:56:44.394Z,18.76
2017-05-10T11:57:45.820Z,18.99
2017-05-10T11:58:47.257Z,19.28
2017-05-10T11:59:48.687Z,18.98
2017-05-10T12:00:50.138Z,18.92
2017-05-10T12:01:51.575Z,18.94
2017-05-10T12:02:53.013Z,19.01
2017-05-10T12:03:54.445Z,19.25
2017-05-10T12:04:55.882Z,19.48
2017-05-10T12:05:57.313Z,19.54
2017-05-10T12:06:58.744Z,19.48
2017-05-10T12:08:00.185Z,19.50
2017-05-10T12:09:01.623Z,19.65
2017-05-10T12:10:03.064Z,19.50
2017-05-10T12:11:04.497Z,19.06
2017-05-10T12:12:05.933Z,18.91
2017-05-10T12:13:07.363Z,18.90
2017-05-10T12:14:08.807Z,19.20
2017-05-10T12:15:10.243Z,19.18
2017-05-10T12:16:11.686Z,19.38
2017-05-10T12:17:13.129Z,19.72
2017-05-10T12:18:14.569Z,19.66
2017-05-10T12:19:15.993Z,19.80
2017-05-10T12:20:17.427Z,19.88
2017-05-10T12:21:18.856Z,19.65
2017-05-10T12:22:20.289Z,19.55
2017-05-10T12:23:21.721Z,19.11
2017-05-10T12:24:23.162Z,19.10
2017-05-10T12:25:24.593Z,19.39
2017-05-10T12:26:26.028Z,19.39
2017-05-10T12:27:27.464Z,19.28
2017-05-10T12:28:28.894Z,18.98
2017-05-10T12:29:30.904Z,19.42
2017-05-10T12:30:33.329Z,19.43
2017-05-10T12:31:34.759Z,19.42
2017-05-10T12:32:36.191Z,19.46
2017-05-10T12:33:37.627Z,19.29
2017-05-10T12:34:39.068Z,19.40
2017-05-10T12:35:40.502Z,19.61
2017-05-10T12:36:41.931Z,19.46
2017-05-10T12:37:43.373Z,19.58
2017-05-10T12:38:44.809Z,19.95
2017-05-10T12:39:46.244Z,19.87
2017-05-10T12:40:47.683Z,19.84
2017-05-10T12:41:49.118Z,19.93
2017-05-10T12:42:50.558Z,19.94
2017-05-10T12:43:52.025Z,19.94
2017-05-10T12:44:53.426Z,20.27
2017-05-10T12:45:54.867Z,20.02
2017-05-10T12:46:56.305Z,20.30
2017-05-10T12:47:57.742Z,19.86
2017-05-10T12:48:59.189Z,19.58
2017-05-10T12:50:00.625Z,19.29
2017-05-10T12:51:02.062Z,19.01
2017-05-10T12:52:03.506Z,18.99
2017-05-10T12:53:04.985Z,18.98
2017-05-10T12:54:06.411Z,19.10
2017-05-10T12:55:07.847Z,19.21
2017-05-10T12:56:09.287Z,19.46
2017-05-10T12:57:10.729Z,19.51
2017-05-10T12:58:12.154Z,19.61
2017-05-10T12:59:13.592Z,19.57
2017-05-10T13:00:15.038Z,19.43
2017-05-10T13:01:16.472Z,19.54
2017-05-10T13:02:17.911Z,19.61
2017-05-10T13:03:19.356Z,19.76
2017-05-10T13:04:20.796Z,19.58
2017-05-10T13:05:22.229Z,19.68
2017-05-10T13:06:23.669Z,19.68
2017-05-10T13:07:25.103Z,19.55
2017-05-10T13:08:28.249Z,19.83
2017-05-10T13:09:29.690Z,19.66
2017-05-10T13:10:32.026Z,19.84
2017-05-10T13:11:35.654Z,20.03
2017-05-10T13:12:37.601Z,19.98
2017-05-10T13:13:40.229Z,19.88
2017-05-10T13:14:41.684Z,19.58
2017-05-10T13:15:43.130Z,19.70
2017-05-10T13:16:44.568Z,19.97
2017-05-10T13:17:46.026Z,19.53
2017-05-10T13:18:47.466Z,19.61
2017-05-10T13:19:48.902Z,19.61
2017-05-10T13:20:50.340Z,19.68
2017-05-10T13:21:51.778Z,19.60
2017-05-10T13:22:53.214Z,19.23
2017-05-10T13:23:54.650Z,19.31
2017-05-10T13:24:56.089Z,18.80
2017-05-10T13:25:57.521Z,18.76